sensor_id;sensor_type;location;lat;lon;timestamp;pressure;altitude;pressure_sealevel;temperature;humidity
82458;BME280;72081;48.870;11.074;2023-10-08T00:01:19;97912.94;;;12.41;73.40
82458;BME280;72081;48.870;11.074;2023-10-08T00:03:47;97924.91;;;12.38;73.90
82458;BME280;72081;48.870;11.074;2023-10-08T00:06:20;97914.44;;;12.37;73.30
82458;BME280;72081;48.870;11.074;2023-10-08T00:08:51;97917.94;;;12.37;73.33
82458;BME280;72081;48.870;11.074;2023-10-08T00:11:17;97913.16;;;12.39;72.75
82458;BME280;72081;48.870;11.074;2023-10-08T00:13:43;97913.31;;;12.44;71.64
82458;BME280;72081;48.870;11.074;2023-10-08T00:16:13;97908.41;;;12.41;72.44
82458;BME280;72081;48.870;11.074;2023-10-08T00:20:11;97898.34;;;12.55;70.53
82458;BME280;72081;48.870;11.074;2023-10-08T00:22:42;97894.31;;;12.64;70.68
82458;BME280;72081;48.870;11.074;2023-10-08T00:25:07;97893.22;;;12.84;68.38
82458;BME280;72081;48.870;11.074;2023-10-08T00:27:36;97890.75;;;13.12;66.68
82458;BME280;72081;48.870;11.074;2023-10-08T00:30:04;97891.84;;;13.23;67.24
82458;BME280;72081;48.870;11.074;2023-10-08T00:32:38;97883.34;;;13.26;66.31
82458;BME280;72081;48.870;11.074;2023-10-08T00:35:04;97889.97;;;13.23;66.99
82458;BME280;72081;48.870;11.074;2023-10-08T00:37:30;97887.38;;;13.17;67.62
82458;BME280;72081;48.870;11.074;2023-10-08T00:39:56;97873.88;;;13.12;67.46
82458;BME280;72081;48.870;11.074;2023-10-08T00:42:22;97876.66;;;13.17;67.00
82458;BME280;72081;48.870;11.074;2023-10-08T00:44:47;97870.28;;;13.29;65.81
82458;BME280;72081;48.870;11.074;2023-10-08T00:47:13;97871.00;;;13.36;65.99
82458;BME280;72081;48.870;11.074;2023-10-08T00:49:39;97866.22;;;13.39;66.05
82458;BME280;72081;48.870;11.074;2023-10-08T00:52:10;97868.22;;;13.31;67.37
82458;BME280;72081;48.870;11.074;2023-10-08T00:54:36;97865.31;;;13.33;65.94
82458;BME280;72081;48.870;11.074;2023-10-08T00:57:33;97860.50;;;13.23;67.52
82458;BME280;72081;48.870;11.074;2023-10-08T01:00:07;97860.97;;;13.20;66.77
82458;BME280;72081;48.870;11.074;2023-10-08T01:02:47;97861.41;;;13.17;67.99
82458;BME280;72081;48.870;11.074;2023-10-08T01:05:20;97863.22;;;13.05;69.08
82458;BME280;72081;48.870;11.074;2023-10-08T01:08:04;97860.75;;;12.92;69.13
82458;BME280;72081;48.870;11.074;2023-10-08T01:10:31;97868.88;;;12.85;69.62
82458;BME280;72081;48.870;11.074;2023-10-08T01:12:57;97857.34;;;12.85;69.46
82458;BME280;72081;48.870;11.074;2023-10-08T01:15:25;97855.00;;;12.76;70.47
82458;BME280;72081;48.870;11.074;2023-10-08T01:17:54;97857.53;;;12.71;70.45
82458;BME280;72081;48.870;11.074;2023-10-08T01:20:26;97849.28;;;12.73;71.12
82458;BME280;72081;48.870;11.074;2023-10-08T01:23:05;97845.69;;;12.79;69.50
82458;BME280;72081;48.870;11.074;2023-10-08T01:25:36;97855.25;;;12.87;68.92
82458;BME280;72081;48.870;11.074;2023-10-08T01:28:03;97866.25;;;12.97;67.69
82458;BME280;72081;48.870;11.074;2023-10-08T01:30:34;97857.81;;;13.23;66.00
82458;BME280;72081;48.870;11.074;2023-10-08T01:33:05;97861.22;;;13.54;64.98
82458;BME280;72081;48.870;11.074;2023-10-08T01:35:34;97856.69;;;13.89;63.16
82458;BME280;72081;48.870;11.074;2023-10-08T01:38:00;97862.25;;;13.88;63.50
82458;BME280;72081;48.870;11.074;2023-10-08T01:40:26;97859.94;;;13.80;64.19
82458;BME280;72081;48.870;11.074;2023-10-08T01:42:52;97865.31;;;13.80;64.08
82458;BME280;72081;48.870;11.074;2023-10-08T01:45:18;97861.09;;;13.84;64.43
82458;BME280;72081;48.870;11.074;2023-10-08T01:47:44;97861.22;;;13.77;64.87
82458;BME280;72081;48.870;11.074;2023-10-08T01:50:10;97857.50;;;13.78;63.54
82458;BME280;72081;48.870;11.074;2023-10-08T01:52:49;97859.81;;;13.86;63.92
82458;BME280;72081;48.870;11.074;2023-10-08T01:55:16;97858.88;;;13.81;64.26
82458;BME280;72081;48.870;11.074;2023-10-08T01:57:47;97861.69;;;13.74;64.08
82458;BME280;72081;48.870;11.074;2023-10-08T02:00:14;97866.34;;;13.79;65.26
82458;BME280;72081;48.870;11.074;2023-10-08T02:02:39;97858.91;;;13.69;64.72
82458;BME280;72081;48.870;11.074;2023-10-08T02:05:06;97865.66;;;13.60;64.96
82458;BME280;72081;48.870;11.074;2023-10-08T02:07:32;97860.75;;;13.68;64.89
82458;BME280;72081;48.870;11.074;2023-10-08T02:09:59;97864.84;;;13.59;66.51
82458;BME280;72081;48.870;11.074;2023-10-08T02:12:24;97858.31;;;13.55;64.73
82458;BME280;72081;48.870;11.074;2023-10-08T02:14:50;97864.72;;;13.78;63.81
82458;BME280;72081;48.870;11.074;2023-10-08T02:17:16;97868.47;;;13.88;63.85
82458;BME280;72081;48.870;11.074;2023-10-08T02:19:42;97869.13;;;13.95;63.16
82458;BME280;72081;48.870;11.074;2023-10-08T02:22:07;97865.41;;;13.96;63.37
82458;BME280;72081;48.870;11.074;2023-10-08T02:24:35;97865.63;;;13.95;63.83
82458;BME280;72081;48.870;11.074;2023-10-08T02:27:00;97862.72;;;13.85;64.40
82458;BME280;72081;48.870;11.074;2023-10-08T02:29:28;97861.00;;;13.79;63.92
82458;BME280;72081;48.870;11.074;2023-10-08T02:31:55;97861.22;;;13.77;64.49
82458;BME280;72081;48.870;11.074;2023-10-08T02:34:20;97863.53;;;13.85;63.35
82458;BME280;72081;48.870;11.074;2023-10-08T02:36:45;97859.81;;;13.86;63.75
82458;BME280;72081;48.870;11.074;2023-10-08T02:39:13;97866.69;;;13.82;64.24
82458;BME280;72081;48.870;11.074;2023-10-08T02:41:49;97865.16;;;13.86;62.99
82458;BME280;72081;48.870;11.074;2023-10-08T02:44:16;97862.72;;;13.85;63.18
82458;BME280;72081;48.870;11.074;2023-10-08T02:46:43;97872.88;;;13.94;63.29
82458;BME280;72081;48.870;11.074;2023-10-08T02:49:10;97870.88;;;14.02;63.08
82458;BME280;72081;48.870;11.074;2023-10-08T02:51:38;97877.53;;;14.11;61.86
82458;BME280;72081;48.870;11.074;2023-10-08T02:54:04;97869.09;;;14.07;62.99
82458;BME280;72081;48.870;11.074;2023-10-08T02:56:31;97873.56;;;14.02;63.06
82458;BME280;72081;48.870;11.074;2023-10-08T02:58:57;97869.03;;;13.90;64.14
82458;BME280;72081;48.870;11.074;2023-10-08T03:01:22;97860.75;;;13.80;65.06
82458;BME280;72081;48.870;11.074;2023-10-08T03:03:48;97869.97;;;13.73;64.69
82458;BME280;72081;48.870;11.074;2023-10-08T03:06:13;97862.59;;;13.68;64.83
82458;BME280;72081;48.870;11.074;2023-10-08T03:08:58;97855.84;;;13.65;65.39
82458;BME280;72081;48.870;11.074;2023-10-08T03:11:29;97848.16;;;13.57;65.69
82458;BME280;72081;48.870;11.074;2023-10-08T03:13:56;97856.91;;;13.53;65.56
82458;BME280;72081;48.870;11.074;2023-10-08T03:16:21;97848.16;;;13.46;66.33
82458;BME280;72081;48.870;11.074;2023-10-08T03:18:53;97859.34;;;13.43;66.22
82458;BME280;72081;48.870;11.074;2023-10-08T03:21:19;97847.81;;;13.42;66.32
82458;BME280;72081;48.870;11.074;2023-10-08T03:23:49;97842.94;;;13.51;64.83
82458;BME280;72081;48.870;11.074;2023-10-08T03:26:16;97845.94;;;13.66;63.67
82458;BME280;72081;48.870;11.074;2023-10-08T03:28:57;97848.88;;;13.76;64.57
82458;BME280;72081;48.870;11.074;2023-10-08T03:31:24;97850.97;;;13.74;64.31
82458;BME280;72081;48.870;11.074;2023-10-08T03:34:09;97852.25;;;13.72;64.49
82458;BME280;72081;48.870;11.074;2023-10-08T03:36:38;97845.94;;;13.66;64.44
82458;BME280;72081;48.870;11.074;2023-10-08T03:39:09;97846.28;;;13.81;62.18
82458;BME280;72081;48.870;11.074;2023-10-08T03:41:38;97851.50;;;13.88;62.73
82458;BME280;72081;48.870;11.074;2023-10-08T03:44:05;97861.09;;;13.95;61.33
82458;BME280;72081;48.870;11.074;2023-10-08T03:46:32;97854.28;;;14.05;59.96
82458;BME280;72081;48.870;11.074;2023-10-08T03:49:07;97849.94;;;14.27;58.69
82458;BME280;72081;48.870;11.074;2023-10-08T03:51:40;97855.34;;;14.55;56.66
82458;BME280;72081;48.870;11.074;2023-10-08T03:54:08;97856.38;;;14.66;56.43
82458;BME280;72081;48.870;11.074;2023-10-08T03:56:33;97847.13;;;14.91;54.51
82458;BME280;72081;48.870;11.074;2023-10-08T03:59:04;97846.91;;;14.92;55.25
82458;BME280;72081;48.870;11.074;2023-10-08T04:01:40;97852.19;;;14.87;55.88
82458;BME280;72081;48.870;11.074;2023-10-08T04:04:06;97859.31;;;14.81;55.76
82458;BME280;72081;48.870;11.074;2023-10-08T04:06:37;97853.56;;;14.90;55.60
82458;BME280;72081;48.870;11.074;2023-10-08T04:09:05;97848.69;;;15.03;55.40
82458;BME280;72081;48.870;11.074;2023-10-08T04:11:41;97860.78;;;15.34;54.84
82458;BME280;72081;48.870;11.074;2023-10-08T04:14:29;97858.81;;;15.30;54.82
82458;BME280;72081;48.870;11.074;2023-10-08T04:16:54;97859.47;;;15.37;54.74
82458;BME280;72081;48.870;11.074;2023-10-08T04:19:21;97872.66;;;15.38;54.51
82458;BME280;72081;48.870;11.074;2023-10-08T04:21:52;97880.03;;;15.43;54.70
82458;BME280;72081;48.870;11.074;2023-10-08T04:24:22;97876.25;;;15.27;55.30
82458;BME280;72081;48.870;11.074;2023-10-08T04:26:54;97867.53;;;15.20;56.12
82458;BME280;72081;48.870;11.074;2023-10-08T04:29:21;97861.41;;;15.08;56.12
82458;BME280;72081;48.870;11.074;2023-10-08T04:31:48;97870.22;;;15.20;56.45
82458;BME280;72081;48.870;11.074;2023-10-08T04:34:19;97876.97;;;15.23;55.39
82458;BME280;72081;48.870;11.074;2023-10-08T04:36:49;97896.78;;;15.16;56.12
82458;BME280;72081;48.870;11.074;2023-10-08T04:39:23;97895.16;;;15.15;56.23
82458;BME280;72081;48.870;11.074;2023-10-08T04:41:52;97897.50;;;15.12;56.97
82458;BME280;72081;48.870;11.074;2023-10-08T04:44:19;97895.94;;;14.99;56.54
82458;BME280;72081;48.870;11.074;2023-10-08T04:46:47;97899.53;;;15.05;56.87
82458;BME280;72081;48.870;11.074;2023-10-08T04:49:17;97904.91;;;15.05;56.98
82458;BME280;72081;48.870;11.074;2023-10-08T04:51:57;97900.53;;;15.15;56.49
82458;BME280;72081;48.870;11.074;2023-10-08T04:54:26;97908.66;;;15.21;57.07
82458;BME280;72081;48.870;11.074;2023-10-08T04:57:01;97913.09;;;15.27;56.53
82458;BME280;72081;48.870;11.074;2023-10-08T04:59:30;97914.41;;;15.24;56.68
82458;BME280;72081;48.870;11.074;2023-10-08T05:02:03;97928.25;;;15.33;56.42
82458;BME280;72081;48.870;11.074;2023-10-08T05:04:49;97929.59;;;15.18;57.36
82458;BME280;72081;48.870;11.074;2023-10-08T05:07:18;97931.22;;;15.19;57.24
82458;BME280;72081;48.870;11.074;2023-10-08T05:10:03;97930.00;;;15.10;57.96
82458;BME280;72081;48.870;11.074;2023-10-08T05:12:29;97936.81;;;15.01;58.67
82458;BME280;72081;48.870;11.074;2023-10-08T05:15:04;97925.06;;;14.91;58.70
82458;BME280;72081;48.870;11.074;2023-10-08T05:17:43;97921.09;;;14.93;58.59
82458;BME280;72081;48.870;11.074;2023-10-08T05:20:14;97928.69;;;14.84;58.91
82458;BME280;72081;48.870;11.074;2023-10-08T05:22:58;97928.69;;;14.84;58.37
82458;BME280;72081;48.870;11.074;2023-10-08T05:25:42;97923.88;;;14.70;59.88
82458;BME280;72081;48.870;11.074;2023-10-08T05:28:23;97923.06;;;14.69;59.39
82458;BME280;72081;48.870;11.074;2023-10-08T05:30:52;97921.31;;;14.63;60.03
82458;BME280;72081;48.870;11.074;2023-10-08T05:33:40;97920.88;;;14.54;61.34
82458;BME280;72081;48.870;11.074;2023-10-08T05:36:24;97910.47;;;14.58;60.60
82458;BME280;72081;48.870;11.074;2023-10-08T05:39:18;97916.06;;;14.56;60.51
82458;BME280;72081;48.870;11.074;2023-10-08T05:41:50;97913.28;;;14.51;61.05
82458;BME280;72081;48.870;11.074;2023-10-08T05:44:34;97928.47;;;14.46;60.92
82458;BME280;72081;48.870;11.074;2023-10-08T05:47:10;97941.69;;;14.47;60.90
82458;BME280;72081;48.870;11.074;2023-10-08T05:50:04;97929.75;;;14.43;61.45
82458;BME280;72081;48.870;11.074;2023-10-08T05:52:46;97924.97;;;14.45;61.40
82458;BME280;72081;48.870;11.074;2023-10-08T05:57:46;97917.28;;;14.49;61.93
82458;BME280;72081;48.870;11.074;2023-10-08T06:00:17;97928.84;;;14.49;62.52
82458;BME280;72081;48.870;11.074;2023-10-08T06:02:46;97935.59;;;14.52;61.61
82458;BME280;72081;48.870;11.074;2023-10-08T06:05:12;97938.63;;;14.55;61.64
82458;BME280;72081;48.870;11.074;2023-10-08T06:07:43;97932.28;;;14.62;61.29
82458;BME280;72081;48.870;11.074;2023-10-08T06:10:18;97904.94;;;14.65;61.35
82458;BME280;72081;48.870;11.074;2023-10-08T06:18:27;97930.06;;;14.70;61.32
82458;BME280;72081;48.870;11.074;2023-10-08T06:20:53;97933.22;;;14.67;61.93
82458;BME280;72081;48.870;11.074;2023-10-08T06:23:26;97923.53;;;14.66;63.14
82458;BME280;72081;48.870;11.074;2023-10-08T06:25:54;97923.38;;;14.73;63.37
82458;BME280;72081;48.870;11.074;2023-10-08T06:28:32;97922.91;;;14.76;63.01
82458;BME280;72081;48.870;11.074;2023-10-08T06:31:02;97931.63;;;14.83;61.92
82458;BME280;72081;48.870;11.074;2023-10-08T06:33:32;97926.25;;;15.11;62.14
82458;BME280;72081;48.870;11.074;2023-10-08T06:36:02;97930.00;;;15.10;61.49
82458;BME280;72081;48.870;11.074;2023-10-08T06:38:31;97940.56;;;15.00;61.83
82458;BME280;72081;48.870;11.074;2023-10-08T06:40:58;97925.41;;;14.94;63.13
82458;BME280;72081;48.870;11.074;2023-10-08T06:43:34;97932.31;;;14.90;63.69
82458;BME280;72081;48.870;11.074;2023-10-08T06:46:01;97931.19;;;14.86;63.60
82458;BME280;72081;48.870;11.074;2023-10-08T06:48:29;97930.56;;;14.84;63.93
82458;BME280;72081;48.870;11.074;2023-10-08T06:50:55;97936.75;;;14.84;63.54
82458;BME280;72081;48.870;11.074;2023-10-08T06:53:32;97937.69;;;14.90;62.79
82458;BME280;72081;48.870;11.074;2023-10-08T06:55:57;97933.88;;;15.03;61.78
82458;BME280;72081;48.870;11.074;2023-10-08T06:58:25;97935.56;;;15.21;61.93
82458;BME280;72081;48.870;11.074;2023-10-08T07:00:52;97933.31;;;15.29;61.63
82458;BME280;72081;48.870;11.074;2023-10-08T07:03:18;97935.81;;;15.36;60.77
82458;BME280;72081;48.870;11.074;2023-10-08T07:05:45;97924.09;;;15.42;61.31
82458;BME280;72081;48.870;11.074;2023-10-08T07:08:19;97928.50;;;15.48;61.26
82458;BME280;72081;48.870;11.074;2023-10-08T07:10:45;97934.28;;;15.57;60.46
82458;BME280;72081;48.870;11.074;2023-10-08T07:13:12;97938.00;;;15.67;61.96
82458;BME280;72081;48.870;11.074;2023-10-08T07:15:42;97950.09;;;15.82;62.84
82458;BME280;72081;48.870;11.074;2023-10-08T07:18:10;97958.38;;;15.97;60.02
82458;BME280;72081;48.870;11.074;2023-10-08T07:20:39;97959.75;;;15.99;59.91
82458;BME280;72081;48.870;11.074;2023-10-08T07:23:05;97969.06;;;16.08;59.38
82458;BME280;72081;48.870;11.074;2023-10-08T07:25:36;97971.34;;;16.00;60.15
82458;BME280;72081;48.870;11.074;2023-10-08T07:28:04;97976.56;;;15.90;60.33
82458;BME280;72081;48.870;11.074;2023-10-08T07:30:30;97982.38;;;15.82;60.03
82458;BME280;72081;48.870;11.074;2023-10-08T07:32:57;97979.50;;;15.71;61.10
82458;BME280;72081;48.870;11.074;2023-10-08T07:35:23;97975.13;;;15.65;60.67
82458;BME280;72081;48.870;11.074;2023-10-08T07:37:51;97963.53;;;15.65;61.76
82458;BME280;72081;48.870;11.074;2023-10-08T07:40:19;97963.28;;;15.66;61.67
82458;BME280;72081;48.870;11.074;2023-10-08T07:42:46;97960.66;;;15.71;61.85
82458;BME280;72081;48.870;11.074;2023-10-08T07:45:16;97961.81;;;15.75;61.67
82458;BME280;72081;48.870;11.074;2023-10-08T07:47:42;97982.59;;;15.80;61.55
82458;BME280;72081;48.870;11.074;2023-10-08T07:50:08;97984.97;;;15.93;61.79
82458;BME280;72081;48.870;11.074;2023-10-08T07:52:37;97983.25;;;16.04;60.65
82458;BME280;72081;48.870;11.074;2023-10-08T07:55:02;97974.91;;;16.22;61.79
82458;BME280;72081;48.870;11.074;2023-10-08T07:57:29;97983.91;;;16.50;59.98
82458;BME280;72081;48.870;11.074;2023-10-08T07:59:56;97963.91;;;16.84;59.74
82458;BME280;72081;48.870;11.074;2023-10-08T08:02:29;97971.19;;;17.11;57.37
82458;BME280;72081;48.870;11.074;2023-10-08T08:04:56;97971.84;;;16.96;58.28
82458;BME280;72081;48.870;11.074;2023-10-08T08:07:21;97981.66;;;16.80;58.97
82458;BME280;72081;48.870;11.074;2023-10-08T08:09:50;97977.09;;;16.64;59.31
82458;BME280;72081;48.870;11.074;2023-10-08T08:12:20;97989.38;;;16.55;60.76
82458;BME280;72081;48.870;11.074;2023-10-08T08:14:46;97992.25;;;16.48;59.83
82458;BME280;72081;48.870;11.074;2023-10-08T08:17:13;97989.25;;;16.45;60.31
82458;BME280;72081;48.870;11.074;2023-10-08T08:19:46;97993.56;;;16.46;59.85
82458;BME280;72081;48.870;11.074;2023-10-08T08:22:13;97996.56;;;16.49;59.48
82458;BME280;72081;48.870;11.074;2023-10-08T08:24:46;98002.84;;;16.55;60.09
82458;BME280;72081;48.870;11.074;2023-10-08T08:27:12;97992.63;;;16.57;60.68
82458;BME280;72081;48.870;11.074;2023-10-08T08:29:49;98003.75;;;16.60;59.37
82458;BME280;72081;48.870;11.074;2023-10-08T08:32:14;98006.50;;;16.65;60.53
82458;BME280;72081;48.870;11.074;2023-10-08T08:34:47;98020.38;;;16.74;60.13
82458;BME280;72081;48.870;11.074;2023-10-08T08:37:18;98020.00;;;16.87;59.01
82458;BME280;72081;48.870;11.074;2023-10-08T08:39:44;98007.41;;;16.93;57.95
82458;BME280;72081;48.870;11.074;2023-10-08T08:42:11;98023.00;;;16.91;58.52
82458;BME280;72081;48.870;11.074;2023-10-08T08:46:34;98043.09;;;17.00;58.33
82458;BME280;72081;48.870;11.074;2023-10-08T08:49:03;98043.50;;;17.14;57.00
82458;BME280;72081;48.870;11.074;2023-10-08T08:51:29;98062.47;;;17.41;57.14
82458;BME280;72081;48.870;11.074;2023-10-08T08:53:55;98063.63;;;17.50;57.42
82458;BME280;72081;48.870;11.074;2023-10-08T08:56:20;98059.69;;;17.57;56.83
82458;BME280;72081;48.870;11.074;2023-10-08T08:58:48;98041.53;;;17.75;57.14
82458;BME280;72081;48.870;11.074;2023-10-08T09:01:14;98028.50;;;17.72;55.79
82458;BME280;72081;48.870;11.074;2023-10-08T09:03:42;98031.72;;;17.69;56.39
82458;BME280;72081;48.870;11.074;2023-10-08T09:06:08;98031.91;;;17.62;55.47
82458;BME280;72081;48.870;11.074;2023-10-08T09:08:35;98032.97;;;17.61;57.03
82458;BME280;72081;48.870;11.074;2023-10-08T09:11:01;98033.84;;;17.67;56.64
82458;BME280;72081;48.870;11.074;2023-10-08T09:13:27;98036.69;;;17.77;56.99
82458;BME280;72081;48.870;11.074;2023-10-08T09:16:07;98040.81;;;17.89;58.24
82458;BME280;72081;48.870;11.074;2023-10-08T09:18:32;98033.16;;;18.08;55.88
82458;BME280;72081;48.870;11.074;2023-10-08T09:21:10;98035.91;;;18.13;56.43
82458;BME280;72081;48.870;11.074;2023-10-08T09:23:39;98032.16;;;18.19;56.88
82458;BME280;72081;48.870;11.074;2023-10-08T09:26:08;98029.47;;;18.19;55.99
82458;BME280;72081;48.870;11.074;2023-10-08T09:28:34;98029.47;;;18.19;56.18
82458;BME280;72081;48.870;11.074;2023-10-08T09:30:59;98035.16;;;18.23;58.19
82458;BME280;72081;48.870;11.074;2023-10-08T09:33:28;98037.28;;;18.16;56.76
82458;BME280;72081;48.870;11.074;2023-10-08T09:35:53;98039.84;;;18.01;55.69
82458;BME280;72081;48.870;11.074;2023-10-08T09:38:22;98044.84;;;17.87;58.18
82458;BME280;72081;48.870;11.074;2023-10-08T09:40:49;98038.31;;;17.78;58.08
82458;BME280;72081;48.870;11.074;2023-10-08T09:43:15;98037.06;;;17.64;58.16
82458;BME280;72081;48.870;11.074;2023-10-08T09:45:48;98023.94;;;17.50;58.11
82458;BME280;72081;48.870;11.074;2023-10-08T09:48:17;98028.75;;;17.43;58.28
82458;BME280;72081;48.870;11.074;2023-10-08T09:50:47;98023.56;;;17.37;58.58
82458;BME280;72081;48.870;11.074;2023-10-08T09:53:13;98021.03;;;17.30;59.13
82458;BME280;72081;48.870;11.074;2023-10-08T09:55:45;98020.53;;;17.33;59.35
82458;BME280;72081;48.870;11.074;2023-10-08T09:58:12;98016.28;;;17.37;60.12
82458;BME280;72081;48.870;11.074;2023-10-08T10:00:40;98011.22;;;17.46;59.80
82458;BME280;72081;48.870;11.074;2023-10-08T10:03:08;98013.47;;;17.54;61.03
82458;BME280;72081;48.870;11.074;2023-10-08T10:05:34;98012.72;;;17.58;58.65
82458;BME280;72081;48.870;11.074;2023-10-08T10:08:03;98013.84;;;17.63;59.58
82458;BME280;72081;48.870;11.074;2023-10-08T10:10:35;98016.53;;;17.63;59.08
82458;BME280;72081;48.870;11.074;2023-10-08T10:13:10;98020.13;;;17.68;60.08
82458;BME280;72081;48.870;11.074;2023-10-08T10:15:39;98008.25;;;17.69;59.05
82458;BME280;72081;48.870;11.074;2023-10-08T10:18:13;97999.38;;;17.74;60.32
82458;BME280;72081;48.870;11.074;2023-10-08T10:21:00;98000.16;;;17.69;59.63
82458;BME280;72081;48.870;11.074;2023-10-08T10:23:47;98015.53;;;17.69;60.24
82458;BME280;72081;48.870;11.074;2023-10-08T10:26:34;98016.53;;;17.63;60.78
82458;BME280;72081;48.870;11.074;2023-10-08T10:29:20;98009.75;;;17.60;60.12
82458;BME280;72081;48.870;11.074;2023-10-08T10:31:48;98011.56;;;17.54;59.97
82458;BME280;72081;48.870;11.074;2023-10-08T10:34:16;98014.78;;;17.51;60.56
82458;BME280;72081;48.870;11.074;2023-10-08T10:36:43;98018.00;;;17.48;60.46
82458;BME280;72081;48.870;11.074;2023-10-08T10:39:11;98016.94;;;17.49;60.94
82458;BME280;72081;48.870;11.074;2023-10-08T10:41:52;98018.84;;;17.54;60.35
82458;BME280;72081;48.870;11.074;2023-10-08T10:44:23;98025.69;;;17.62;60.62
82458;BME280;72081;48.870;11.074;2023-10-08T10:46:49;98032.34;;;17.76;60.56
82458;BME280;72081;48.870;11.074;2023-10-08T10:49:25;98036.25;;;17.90;60.11
82458;BME280;72081;48.870;11.074;2023-10-08T10:51:57;98039.38;;;18.09;59.79
82458;BME280;72081;48.870;11.074;2023-10-08T10:54:23;98043.78;;;18.20;59.20
82458;BME280;72081;48.870;11.074;2023-10-08T10:56:50;98046.88;;;18.34;58.96
82458;BME280;72081;48.870;11.074;2023-10-08T10:59:34;98051.81;;;18.47;58.48
82458;BME280;72081;48.870;11.074;2023-10-08T11:02:03;98047.09;;;18.69;57.40
82458;BME280;72081;48.870;11.074;2023-10-08T11:04:46;98054.31;;;19.06;58.01
82458;BME280;72081;48.870;11.074;2023-10-08T11:07:19;98044.72;;;19.35;55.95
82458;BME280;72081;48.870;11.074;2023-10-08T11:09:47;98046.88;;;19.38;55.10
82458;BME280;72081;48.870;11.074;2023-10-08T11:12:13;98037.41;;;19.36;56.17
82458;BME280;72081;48.870;11.074;2023-10-08T11:14:46;98050.66;;;19.37;55.34
82458;BME280;72081;48.870;11.074;2023-10-08T11:17:23;98034.72;;;19.46;56.61
82458;BME280;72081;48.870;11.074;2023-10-08T11:19:49;98030.91;;;19.47;55.47
82458;BME280;72081;48.870;11.074;2023-10-08T11:22:16;98032.81;;;19.41;55.99
82458;BME280;72081;48.870;11.074;2023-10-08T11:24:42;98040.94;;;19.41;56.44
82458;BME280;72081;48.870;11.074;2023-10-08T11:27:10;98030.38;;;19.40;56.31
82458;BME280;72081;48.870;11.074;2023-10-08T11:29:47;98024.13;;;19.29;55.73
82458;BME280;72081;48.870;11.074;2023-10-08T11:32:16;98022.75;;;19.22;56.71
82458;BME280;72081;48.870;11.074;2023-10-08T11:35:18;98008.09;;;19.13;55.60
82458;BME280;72081;48.870;11.074;2023-10-08T11:37:48;98001.88;;;19.12;56.21
82458;BME280;72081;48.870;11.074;2023-10-08T11:40:24;98000.81;;;19.13;55.68
82458;BME280;72081;48.870;11.074;2023-10-08T11:43:09;98010.53;;;19.14;56.55
82458;BME280;72081;48.870;11.074;2023-10-08T11:45:41;98017.31;;;19.17;56.63
82458;BME280;72081;48.870;11.074;2023-10-08T11:48:13;98008.94;;;19.18;56.13
82458;BME280;72081;48.870;11.074;2023-10-08T11:50:38;97992.44;;;19.25;55.62
82458;BME280;72081;48.870;11.074;2023-10-08T11:53:05;98001.13;;;19.32;56.26
82458;BME280;72081;48.870;11.074;2023-10-08T11:55:32;98012.50;;;19.44;56.03
82458;BME280;72081;48.870;11.074;2023-10-08T11:58:02;98008.44;;;19.47;58.62
82458;BME280;72081;48.870;11.074;2023-10-08T12:00:41;98003.03;;;19.47;55.07
82458;BME280;72081;48.870;11.074;2023-10-08T12:03:13;97999.28;;;19.53;55.86
82458;BME280;72081;48.870;11.074;2023-10-08T12:05:46;97994.44;;;19.55;55.06
82458;BME280;72081;48.870;11.074;2023-10-08T12:08:19;97985.22;;;19.56;56.30
82458;BME280;72081;48.870;11.074;2023-10-08T12:10:46;97995.25;;;19.65;55.50
82458;BME280;72081;48.870;11.074;2023-10-08T12:13:13;97988.50;;;19.78;55.66
82458;BME280;72081;48.870;11.074;2023-10-08T12:15:41;97981.72;;;19.81;54.97
82458;BME280;72081;48.870;11.074;2023-10-08T12:18:07;97983.59;;;19.85;55.06
82458;BME280;72081;48.870;11.074;2023-10-08T12:20:50;97996.88;;;20.02;55.01
82458;BME280;72081;48.870;11.074;2023-10-08T12:23:15;97985.75;;;20.24;54.37
82458;BME280;72081;48.870;11.074;2023-10-08T12:25:54;97998.25;;;20.45;53.57
82458;BME280;72081;48.870;11.074;2023-10-08T12:28:21;98012.34;;;20.47;54.27
82458;BME280;72081;48.870;11.074;2023-10-08T12:30:48;98018.56;;;20.48;52.91
82458;BME280;72081;48.870;11.074;2023-10-08T12:33:17;98030.72;;;20.40;52.93
82458;BME280;72081;48.870;11.074;2023-10-08T12:35:44;98039.16;;;20.34;53.13
82458;BME280;72081;48.870;11.074;2023-10-08T12:38:10;98032.91;;;20.33;53.87
82458;BME280;72081;48.870;11.074;2023-10-08T12:40:36;98041.88;;;20.34;54.37
82458;BME280;72081;48.870;11.074;2023-10-08T12:43:13;98041.63;;;20.25;54.70
82458;BME280;72081;48.870;11.074;2023-10-08T12:45:38;98038.88;;;20.20;53.91
82458;BME280;72081;48.870;11.074;2023-10-08T12:48:04;98036.44;;;20.18;53.33
82458;BME280;72081;48.870;11.074;2023-10-08T12:50:30;98037.28;;;20.14;54.75
82458;BME280;72081;48.870;11.074;2023-10-08T12:53:07;98029.69;;;20.11;54.03
82458;BME280;72081;48.870;11.074;2023-10-08T12:55:33;98024.53;;;20.09;54.42
82458;BME280;72081;48.870;11.074;2023-10-08T12:58:05;98024.53;;;20.09;54.31
82458;BME280;72081;48.870;11.074;2023-10-08T13:00:37;98021.00;;;19.98;56.25
82458;BME280;72081;48.870;11.074;2023-10-08T13:03:14;98022.09;;;19.97;54.99
82458;BME280;72081;48.870;11.074;2023-10-08T13:05:48;98006.38;;;19.89;56.05
82458;BME280;72081;48.870;11.074;2023-10-08T13:08:17;98006.38;;;19.89;54.66
82458;BME280;72081;48.870;11.074;2023-10-08T13:10:43;98008.25;;;19.84;55.05
82458;BME280;72081;48.870;11.074;2023-10-08T13:13:10;97996.63;;;19.88;55.04
82458;BME280;72081;48.870;11.074;2023-10-08T13:15:36;98002.59;;;19.90;56.95
82458;BME280;72081;48.870;11.074;2023-10-08T13:18:02;98005.56;;;19.84;55.35